Time;durP1;ratioP1;P1;durP2;ratioP2;P2;SDS_P1;SDS_P2;PMS_P1;PMS_P2;Temp;Humidity;BMP_temperature;BMP_pressure;BME280_temperature;BME280_humidity;BME280_pressure;Samples;Min_cycle;Max_cycle;Signal;HPM_P1;HPM_P2
2022/12/23 00:01:03;;;;;;;13.98;4.10;;;;;;;8.50;100.00;100130.31;4939321;28;20142;-79
2022/12/23 00:03:30;;;;;;;13.40;3.47;;;;;;;8.49;100.00;100125.31;4943468;28;20055;-80
2022/12/23 00:05:55;;;;;;;20.10;4.43;;;;;;;8.47;100.00;100127.25;4934037;29;20056;-79
2022/12/23 00:08:22;;;;;;;15.10;3.92;;;;;;;8.49;100.00;100125.31;4962642;28;20069;-80
2022/12/23 00:10:49;;;;;;;18.83;3.28;;;;;;;8.54;100.00;100123.06;4926817;28;20040;-80
2022/12/23 00:16:02;;;;;;;13.85;3.30;;;;;;;8.56;100.00;100121.94;4937286;29;20047;-79
2022/12/23 00:18:28;;;;;;;11.68;3.90;;;;;;;8.53;100.00;100117.09;4917738;28;20062;-78
2022/12/23 00:20:58;;;;;;;12.02;3.13;;;;;;;8.65;100.00;100120.16;4927922;28;20083;-79
2022/12/23 00:23:23;;;;;;;9.95;3.40;;;;;;;8.62;100.00;100130.81;4966032;28;20169;-80
2022/12/23 00:25:49;;;;;;;13.43;4.38;;;;;;;8.58;100.00;100119.19;4930860;28;20748;-79
2022/12/23 00:28:20;;;;;;;10.75;3.45;;;;;;;8.65;100.00;100133.09;4964199;28;20127;-79
2022/12/23 00:31:06;;;;;;;12.52;3.58;;;;;;;8.73;100.00;100127.13;4959640;28;20048;-79
2022/12/23 00:33:37;;;;;;;13.77;3.42;;;;;;;8.64;100.00;100128.09;4913843;28;20047;-78
2022/12/23 00:36:17;;;;;;;10.85;3.53;;;;;;;8.71;100.00;100129.06;4942187;28;20028;-79
2022/12/23 00:44:11;;;;;;;11.40;3.28;;;;;;;8.76;100.00;100142.31;4950825;28;20541;-79
2022/12/23 00:46:37;;;;;;;11.70;3.60;;;;;;;8.87;100.00;100136.00;4931373;29;20094;-78
2022/12/23 00:51:47;;;;;;;14.88;5.82;;;;;;;8.93;100.00;100143.94;4935329;29;20115;-79
2022/12/23 00:54:13;;;;;;;23.45;4.15;;;;;;;8.92;100.00;100138.94;4949344;28;20047;-79
2022/12/23 00:56:38;;;;;;;9.70;3.83;;;;;;;8.85;100.00;100143.94;4930120;28;20441;-79
2022/12/23 00:59:04;;;;;;;14.20;4.45;;;;;;;8.84;100.00;100137.16;4922226;28;20075;-79
2022/12/23 01:07:00;;;;;;;10.73;3.63;;;;;;;8.80;100.00;100153.13;4958081;28;20023;-79
2022/12/23 01:09:26;;;;;;;11.65;4.15;;;;;;;8.77;100.00;100162.81;4933216;28;20036;-79
2022/12/23 01:11:52;;;;;;;16.65;4.53;;;;;;;8.92;100.00;100165.59;4961053;28;20036;-79
2022/12/23 01:14:19;;;;;;;11.38;4.90;;;;;;;8.90;100.00;100167.53;4948008;28;20046;-79
2022/12/23 01:16:44;;;;;;;8.38;3.97;;;;;;;8.92;100.00;100169.97;4923800;29;20020;-79
2022/12/23 01:19:10;;;;;;;15.88;4.00;;;;;;;8.84;100.00;100168.19;4957667;28;20058;-79
2022/12/23 01:21:35;;;;;;;18.90;4.70;;;;;;;8.93;100.00;100164.63;4907539;29;20079;-80
2022/12/23 01:24:01;;;;;;;17.05;4.55;;;;;;;8.79;100.00;100165.25;4952718;28;20421;-79
2022/12/23 01:26:27;;;;;;;12.82;3.95;;;;;;;8.83;100.00;100168.34;4937458;28;20042;-79
2022/12/23 01:28:57;;;;;;;13.43;4.10;;;;;;;8.79;100.00;100174.78;4922799;28;20126;-79
2022/12/23 01:31:24;;;;;;;12.90;3.70;;;;;;;8.95;100.00;100185.16;4924135;29;20046;-78
2022/12/23 01:33:50;;;;;;;16.90;4.32;;;;;;;8.99;100.00;100173.53;4951512;28;20038;-78
2022/12/23 01:36:16;;;;;;;16.60;4.70;;;;;;;9.01;100.00;100179.34;4944733;28;20788;-78
2022/12/23 01:38:42;;;;;;;11.70;4.38;;;;;;;9.07;100.00;100168.34;4925690;28;20031;-79
2022/12/23 01:42:42;;;;;;;16.85;4.35;;;;;;;9.03;100.00;100174.81;4938268;28;20016;-79
2022/12/23 01:44:00;;;;;;;16.25;4.85;;;;;;;9.04;100.00;100173.03;4915674;28;20056;-80
2022/12/23 01:46:25;;;;;;;13.32;5.07;;;;;;;8.91;100.00;100176.09;4926777;29;20031;-79
2022/12/23 01:48:52;;;;;;;14.50;4.47;;;;;;;8.93;100.00;100177.56;4956297;28;20044;-78
2022/12/23 01:51:24;;;;;;;17.00;5.05;;;;;;;8.89;100.00;100173.69;4921076;29;20039;-78
2022/12/23 01:53:56;;;;;;;17.83;4.95;;;;;;;8.94;100.00;100171.41;4938703;28;20118;-78
2022/12/23 01:56:28;;;;;;;9.52;4.40;;;;;;;8.83;100.00;100171.72;4959128;28;20111;-79
2022/12/23 02:04:42;;;;;;;16.75;4.20;;;;;;;8.90;100.00;100184.81;4963721;28;20289;-79
2022/12/23 02:09:54;;;;;;;15.25;5.95;;;;;;;8.87;100.00;100188.56;4927365;28;20071;-78
2022/12/23 02:12:47;;;;;;;14.10;4.47;;;;;;;8.86;100.00;100189.50;4942470;28;20076;-78
2022/12/23 02:18:36;;;;;;;15.77;4.40;;;;;;;8.98;100.00;100191.78;4960960;28;20059;-79
2022/12/23 02:21:35;;;;;;;11.13;4.28;;;;;;;9.13;100.00;100205.69;4912304;29;20051;-79
2022/12/23 02:24:41;;;;;;;8.93;4.05;;;;;;;9.05;100.00;100197.94;4949206;28;20118;-80
2022/12/23 02:27:28;;;;;;;10.07;4.40;;;;;;;8.95;100.00;100213.59;4928398;29;20038;-78
2022/12/23 02:30:21;;;;;;;17.85;5.40;;;;;;;9.00;100.00;100213.91;4924478;28;20640;-80
2022/12/23 02:33:34;;;;;;;12.90;5.15;;;;;;;9.03;100.00;100236.09;4943771;28;20032;-79
2022/12/23 02:36:18;;;;;;;11.27;4.80;;;;;;;8.95;100.00;100239.47;4940844;28;20128;-78
2022/12/23 02:38:55;;;;;;;13.27;6.00;;;;;;;8.99;100.00;100229.63;4925326;28;20144;-78
2022/12/23 02:41:37;;;;;;;15.63;5.40;;;;;;;8.98;100.00;100231.38;4958124;28;20374;-79
2022/12/23 02:44:28;;;;;;;11.18;5.65;;;;;;;9.03;100.00;100228.31;4957055;28;20107;-79
2022/12/23 02:47:01;;;;;;;10.50;5.40;;;;;;;8.96;100.00;100228.94;4919086;29;20043;-78
2022/12/23 02:49:33;;;;;;;17.05;5.50;;;;;;;8.96;100.00;100225.56;4959868;28;20043;-79
2022/12/23 02:52:03;;;;;;;19.48;5.95;;;;;;;8.89;100.00;100225.41;4958708;28;20404;-78
2022/12/23 02:54:34;;;;;;;18.98;5.60;;;;;;;8.93;100.00;100229.28;4941754;28;20051;-79
2022/12/23 02:57:04;;;;;;;13.90;5.82;;;;;;;8.98;100.00;100239.13;4948545;28;20054;-78
2022/12/23 02:59:38;;;;;;;14.13;6.05;;;;;;;9.10;100.00;100240.47;4953288;28;20107;-78
2022/12/23 03:02:03;;;;;;;14.60;6.90;;;;;;;8.97;100.00;100245.28;4954690;28;20047;-78
2022/12/23 03:04:29;;;;;;;19.77;6.57;;;;;;;8.99;100.00;100256.28;4913922;28;20051;-78
2022/12/23 03:06:57;;;;;;;17.75;6.30;;;;;;;9.12;100.00;100261.00;4931723;29;20095;-80
2022/12/23 03:09:45;;;;;;;17.67;6.35;;;;;;;9.11;100.00;100262.75;4956471;28;20035;-79
2022/12/23 03:12:28;;;;;;;15.13;6.07;;;;;;;9.11;100.00;100275.69;4929715;29;20748;-80
2022/12/23 03:15:13;;;;;;;19.93;7.10;;;;;;;9.04;100.00;100274.72;4946322;28;20060;-78
2022/12/23 03:18:04;;;;;;;16.45;7.30;;;;;;;8.97;100.00;100278.91;4904393;29;20510;-78
2022/12/23 03:21:02;;;;;;;18.92;7.22;;;;;;;9.04;100.00;100276.47;4943883;28;20044;-79
2022/12/23 03:23:33;;;;;;;17.70;7.32;;;;;;;9.04;100.00;100279.06;4933203;28;20040;-79
2022/12/23 03:26:09;;;;;;;23.48;7.85;;;;;;;9.00;100.00;100270.00;4929777;29;20044;-78
2022/12/23 03:29:00;;;;;;;16.83;7.43;;;;;;;8.99;100.00;100260.66;4962409;28;20038;-79
2022/12/23 03:31:28;;;;;;;24.30;7.50;;;;;;;8.99;100.00;100264.03;4927633;29;20035;-79
2022/12/23 03:34:10;;;;;;;18.52;7.25;;;;;;;9.02;100.00;100268.06;4959257;28;20044;-79
2022/12/23 03:36:47;;;;;;;22.95;7.68;;;;;;;8.95;100.00;100267.91;4960481;28;20114;-78
2022/12/23 03:39:18;;;;;;;25.25;8.82;;;;;;;9.03;100.00;100264.53;4955324;28;20039;-80
2022/12/23 03:41:52;;;;;;;22.60;7.53;;;;;;;9.14;100.00;100266.81;4952715;28;20046;-79
2022/12/23 03:44:25;;;;;;;21.20;8.10;;;;;;;9.07;100.00;100263.25;4933334;28;20067;-79
2022/12/23 03:46:59;;;;;;;17.88;8.02;;;;;;;9.03;100.00;100262.75;4924473;29;20024;-79
2022/12/23 03:49:34;;;;;;;23.80;8.02;;;;;;;8.99;100.00;100263.25;4950994;28;20122;-78
2022/12/23 03:52:05;;;;;;;19.20;7.13;;;;;;;8.88;100.00;100262.56;4924404;29;20128;-79
2022/12/23 03:54:37;;;;;;;21.90;7.20;;;;;;;8.91;100.00;100253.66;4939630;28;20043;-79
2022/12/23 03:57:06;;;;;;;26.33;7.28;;;;;;;8.89;100.00;100260.75;4938998;28;20038;-79
2022/12/23 03:59:39;;;;;;;23.30;7.50;;;;;;;9.01;100.00;100261.31;4928695;28;20238;-79
2022/12/23 04:02:16;;;;;;;22.13;7.82;;;;;;;8.99;100.00;100266.63;4924139;28;20144;-79
2022/12/23 04:05:17;;;;;;;20.33;6.50;;;;;;;9.04;100.00;100268.72;4922533;28;20130;-79
2022/12/23 04:07:59;;;;;;;22.15;7.43;;;;;;;8.96;100.00;100270.31;4920317;29;20047;-78
2022/12/23 04:10:25;;;;;;;12.35;5.75;;;;;;;8.81;100.00;100278.84;4950706;28;20056;-78
2022/12/23 04:12:51;;;;;;;15.35;5.47;;;;;;;8.76;100.00;100276.75;4929072;29;20220;-79
2022/12/23 04:15:21;;;;;;;12.57;5.38;;;;;;;8.77;100.00;100273.19;4954814;28;20048;-79
2022/12/23 04:17:48;;;;;;;18.40;6.03;;;;;;;8.82;100.00;100273.53;4927247;29;20071;-78
2022/12/23 04:20:14;;;;;;;21.77;5.80;;;;;;;8.83;100.00;100276.91;4926521;28;20107;-79
2022/12/23 04:22:42;;;;;;;11.90;5.20;;;;;;;8.87;100.00;100284.22;4932036;29;20039;-80
2022/12/23 04:25:09;;;;;;;14.35;5.07;;;;;;;8.76;100.00;100287.09;4952824;28;20059;-79
2022/12/23 04:27:34;;;;;;;18.20;5.38;;;;;;;8.89;100.00;100289.22;4943540;28;20023;-79
2022/12/23 04:30:00;;;;;;;16.30;5.22;;;;;;;8.87;100.00;100278.22;4943632;28;20051;-78
2022/12/23 04:32:25;;;;;;;12.85;5.55;;;;;;;8.89;100.00;100278.88;4926993;29;20437;-79
2022/12/23 04:34:51;;;;;;;17.88;5.57;;;;;;;8.79;100.00;100283.38;4928631;28;20808;-79
2022/12/23 04:37:17;;;;;;;14.00;4.90;;;;;;;8.80;100.00;100279.81;4929036;29;20040;-78
2022/12/23 04:39:43;;;;;;;17.25;5.25;;;;;;;8.84;100.00;100292.28;4926917;28;20056;-77
2022/12/23 04:42:08;;;;;;;11.25;5.13;;;;;;;8.83;100.00;100290.66;4947388;28;20031;-79
2022/12/23 04:44:34;;;;;;;15.93;5.03;;;;;;;8.85;100.00;100287.91;4936339;28;20386;-79
2022/12/23 04:46:59;;;;;;;13.70;5.10;;;;;;;8.91;100.00;100295.88;4951472;28;20020;-79
2022/12/23 04:49:25;;;;;;;21.90;5.30;;;;;;;8.87;100.00;100297.16;4945208;28;20058;-78
2022/12/23 04:51:50;;;;;;;19.00;4.90;;;;;;;8.83;100.00;100295.00;4932889;29;20039;-78
2022/12/23 04:54:16;;;;;;;14.70;4.60;;;;;;;8.90;100.00;100296.81;4958862;28;20058;-78
2022/12/23 04:56:41;;;;;;;14.70;5.05;;;;;;;8.86;100.00;100294.72;4959349;28;20039;-80
2022/12/23 04:59:07;;;;;;;11.82;4.32;;;;;;;8.88;100.00;100295.38;4941191;28;20437;-79
2022/12/23 05:01:32;;;;;;;14.27;4.55;;;;;;;8.77;100.00;100297.25;4927475;29;20047;-79
2022/12/23 05:03:58;;;;;;;10.27;4.68;;;;;;;8.93;100.00;100293.91;4943620;28;20051;-78
2022/12/23 05:06:23;;;;;;;20.20;5.22;;;;;;;8.86;100.00;100292.13;4946369;28;20105;-78
2022/12/23 05:08:48;;;;;;;13.15;5.18;;;;;;;8.74;100.00;100292.41;4925544;28;20043;-79
2022/12/23 05:11:14;;;;;;;12.38;4.63;;;;;;;8.83;100.00;100290.66;4929226;29;20034;-78
2022/12/23 05:13:39;;;;;;;19.35;5.20;;;;;;;8.71;100.00;100304.84;4952318;28;20036;-78
2022/12/23 05:16:05;;;;;;;20.92;5.63;;;;;;;8.76;100.00;100300.00;4930322;28;20031;-79
2022/12/23 05:18:31;;;;;;;15.38;5.88;;;;;;;8.70;100.00;100296.28;4929629;28;20038;-79
2022/12/23 05:20:56;;;;;;;15.40;5.78;;;;;;;8.76;100.00;100292.25;4942416;28;20028;-78
2022/12/23 05:23:22;;;;;;;15.88;4.65;;;;;;;8.88;100.00;100285.03;4957295;28;20036;-78
2022/12/23 05:25:52;;;;;;;16.85;5.22;;;;;;;8.72;100.00;100294.34;4924393;28;20056;-79
2022/12/23 05:28:19;;;;;;;14.13;5.28;;;;;;;8.84;100.00;100299.22;4932991;29;20047;-79
2022/12/23 05:30:44;;;;;;;14.52;5.18;;;;;;;8.77;100.00;100299.84;4933887;28;20076;-78
2022/12/23 05:33:10;;;;;;;17.38;5.32;;;;;;;8.74;100.00;100289.81;4947923;28;20032;-78
2022/12/23 05:35:35;;;;;;;13.63;5.63;;;;;;;8.81;100.00;100294.38;4928459;28;20044;-78
2022/12/23 05:38:03;;;;;;;15.05;5.97;;;;;;;8.75;100.00;100296.59;4947683;28;20071;-78
2022/12/23 05:40:29;;;;;;;13.93;5.47;;;;;;;8.73;100.00;100303.69;4932883;28;20523;-78
2022/12/23 05:42:55;;;;;;;12.77;5.32;;;;;;;8.64;100.00;100307.22;4944921;28;20040;-78
2022/12/23 05:45:21;;;;;;;15.38;6.28;;;;;;;8.75;100.00;100316.47;4925526;28;20039;-78
2022/12/23 05:47:46;;;;;;;20.50;6.88;;;;;;;8.70;100.00;100323.88;4927554;28;20051;-79
2022/12/23 05:50:12;;;;;;;13.40;6.53;;;;;;;8.75;100.00;100332.78;4952344;28;20163;-78
2022/12/23 05:52:37;;;;;;;23.50;6.35;;;;;;;8.76;100.00;100329.25;4927848;28;20039;-78
2022/12/23 05:55:04;;;;;;;17.98;6.60;;;;;;;8.79;100.00;100337.66;4920853;28;20052;-79
2022/12/23 05:57:31;;;;;;;14.38;5.95;;;;;;;8.83;100.00;100331.22;4917136;29;20478;-78
2022/12/23 05:59:57;;;;;;;20.52;7.00;;;;;;;8.80;100.00;100328.94;4931303;28;20051;-78
2022/12/23 06:02:22;;;;;;;13.80;6.38;;;;;;;8.76;100.00;100331.03;4931485;29;20099;-78
2022/12/23 06:04:48;;;;;;;20.02;6.68;;;;;;;8.69;100.00;100341.16;4934051;28;20043;-78
2022/12/23 06:07:14;;;;;;;20.83;6.88;;;;;;;8.83;100.00;100344.13;4946209;28;20035;-79
2022/12/23 06:09:40;;;;;;;17.73;6.28;;;;;;;8.87;100.00;100342.84;4925317;29;20055;-79
2022/12/23 06:12:05;;;;;;;17.80;6.00;;;;;;;8.81;100.00;100333.13;4960511;28;20047;-78
2022/12/23 06:14:31;;;;;;;15.25;6.30;;;;;;;8.72;100.00;100333.13;4928690;28;20050;-78
2022/12/23 06:16:56;;;;;;;15.30;6.55;;;;;;;8.77;100.00;100327.47;4941945;28;20051;-78
2022/12/23 06:19:22;;;;;;;17.65;6.53;;;;;;;8.77;100.00;100330.06;4928474;28;20039;-78
2022/12/23 06:21:47;;;;;;;16.92;5.68;;;;;;;8.81;100.00;100333.13;4954778;28;20040;-78
2022/12/23 06:24:12;;;;;;;11.13;5.63;;;;;;;8.77;100.00;100319.72;4929790;28;20135;-78
2022/12/23 06:26:38;;;;;;;14.48;5.90;;;;;;;8.73;100.00;100324.38;4930416;29;20405;-78
2022/12/23 06:29:03;;;;;;;16.05;5.53;;;;;;;8.79;100.00;100325.53;4930434;29;20048;-78
2022/12/23 06:31:29;;;;;;;16.90;7.05;;;;;;;8.74;100.00;100318.25;4928152;29;20024;-78
2022/12/23 06:33:54;;;;;;;19.00;6.30;;;;;;;8.72;100.00;100311.59;4931707;28;20538;-78
2022/12/23 06:36:20;;;;;;;16.27;6.57;;;;;;;8.67;100.00;100313.88;4943983;28;20036;-80
2022/12/23 06:38:45;;;;;;;14.48;6.07;;;;;;;8.57;100.00;100307.03;4933949;28;20027;-78
2022/12/23 06:41:11;;;;;;;18.55;5.82;;;;;;;8.64;100.00;100309.81;4967517;28;20031;-78
2022/12/23 06:43:36;;;;;;;15.50;5.85;;;;;;;8.71;100.00;100305.63;4964967;28;20032;-78
2022/12/23 06:46:02;;;;;;;16.38;6.30;;;;;;;8.67;100.00;100311.28;4943927;28;20607;-78
2022/12/23 06:48:27;;;;;;;14.75;6.07;;;;;;;8.64;100.00;100307.22;4939248;29;20653;-80
2022/12/23 06:50:53;;;;;;;18.27;6.20;;;;;;;8.64;100.00;100304.63;4934295;28;20044;-79
2022/12/23 06:53:18;;;;;;;17.05;5.60;;;;;;;8.61;100.00;100299.78;4932177;29;20032;-78
2022/12/23 06:55:43;;;;;;;16.13;5.93;;;;;;;8.60;100.00;100300.75;4952573;28;20532;-78
2022/12/23 06:58:09;;;;;;;16.48;6.32;;;;;;;8.66;100.00;100301.91;4944011;28;20035;-79
2022/12/23 07:00:34;;;;;;;16.40;5.20;;;;;;;8.62;100.00;100298.81;4950328;28;20048;-79
2022/12/23 07:03:00;;;;;;;13.73;6.35;;;;;;;8.57;100.00;100293.31;4970438;28;20122;-79
2022/12/23 07:05:25;;;;;;;18.05;6.32;;;;;;;8.50;100.00;100302.66;4955993;28;20118;-79
2022/12/23 07:07:51;;;;;;;12.75;5.57;;;;;;;8.56;100.00;100325.28;4967486;28;20039;-79
2022/12/23 07:10:16;;;;;;;16.13;6.43;;;;;;;8.53;100.00;100341.91;4966293;28;20127;-79
2022/12/23 07:12:42;;;;;;;15.48;6.15;;;;;;;8.58;100.00;100355.16;4954149;28;20039;-80
2022/12/23 07:15:08;;;;;;;14.52;6.68;;;;;;;8.68;100.00;100365.41;4936744;28;20041;-79
2022/12/23 07:17:34;;;;;;;14.90;6.43;;;;;;;8.65;100.00;100357.16;4940872;29;20047;-79
2022/12/23 07:19:59;;;;;;;16.13;6.03;;;;;;;8.64;100.00;100365.88;4934982;28;20058;-79
2022/12/23 07:22:24;;;;;;;14.07;6.10;;;;;;;8.59;100.00;100366.34;4966088;28;20203;-79
2022/12/23 07:24:50;;;;;;;21.50;6.78;;;;;;;8.59;100.00;100384.44;4956626;28;20063;-79
2022/12/23 07:27:15;;;;;;;19.10;6.80;;;;;;;8.70;100.00;100384.16;4942044;28;20039;-79
2022/12/23 07:29:41;;;;;;;14.23;6.82;;;;;;;8.65;100.00;100383.81;4919079;29;20047;-79
2022/12/23 07:32:06;;;;;;;23.77;7.20;;;;;;;8.69;100.00;100382.53;4967948;28;20044;-78
2022/12/23 07:34:32;;;;;;;16.25;7.32;;;;;;;8.61;100.00;100376.50;4922557;29;20051;-79
2022/12/23 07:36:57;;;;;;;17.75;7.85;;;;;;;8.64;100.00;100383.97;4935803;29;20043;-79
2022/12/23 07:39:23;;;;;;;22.45;7.75;;;;;;;8.63;100.00;100374.59;4936480;28;20055;-78
2022/12/23 07:41:48;;;;;;;15.77;8.13;;;;;;;8.58;100.00;100381.00;4964103;28;20068;-79
2022/12/23 07:44:14;;;;;;;20.20;7.20;;;;;;;8.62;100.00;100380.72;4966007;28;20051;-79
2022/12/23 07:46:39;;;;;;;22.15;8.82;;;;;;;8.56;100.00;100375.19;4937615;28;20035;-79
2022/12/23 07:49:05;;;;;;;18.02;8.48;;;;;;;8.53;100.00;100362.59;4967882;28;21039;-80
2022/12/23 07:51:30;;;;;;;17.67;8.43;;;;;;;8.64;100.00;100369.25;4955186;28;20024;-78
2022/12/23 07:53:56;;;;;;;22.52;9.13;;;;;;;8.56;100.00;100366.63;4950329;28;20052;-78
2022/12/23 07:56:21;;;;;;;19.45;8.35;;;;;;;8.55;100.00;100370.16;4936211;28;20311;-79
2022/12/23 07:58:48;;;;;;;19.67;8.48;;;;;;;8.51;100.00;100369.69;4935387;28;20031;-78
2022/12/23 08:01:14;;;;;;;19.90;8.27;;;;;;;8.52;100.00;100373.06;4932765;29;20086;-79
2022/12/23 08:03:39;;;;;;;21.25;9.02;;;;;;;8.55;100.00;100370.16;4933354;28;20023;-79
2022/12/23 08:06:08;;;;;;;17.90;8.40;;;;;;;8.51;100.00;100368.84;4969037;28;20079;-79
2022/12/23 08:08:34;;;;;;;21.85;7.55;;;;;;;8.48;100.00;100369.19;4969775;28;20035;-79
2022/12/23 08:11:02;;;;;;;20.40;8.43;;;;;;;8.55;100.00;100363.25;4943894;29;20023;-79
2022/12/23 08:13:29;;;;;;;25.77;9.18;;;;;;;8.63;100.00;100366.84;4961983;28;20051;-82
2022/12/23 08:15:56;;;;;;;15.77;7.38;;;;;;;8.52;100.00;100373.06;4953885;28;20036;-78
2022/12/23 08:18:21;;;;;;;19.40;8.02;;;;;;;8.54;100.00;100371.94;4951652;28;20032;-78
2022/12/23 08:20:55;;;;;;;18.33;8.02;;;;;;;8.52;100.00;100365.31;4923819;28;20103;-80
2022/12/23 08:23:21;;;;;;;17.48;8.13;;;;;;;8.47;100.00;100359.78;4928909;29;20039;-79
2022/12/23 08:25:46;;;;;;;18.23;7.63;;;;;;;8.46;100.00;100355.59;4956890;28;20434;-78
2022/12/23 08:28:12;;;;;;;15.75;7.53;;;;;;;8.46;100.00;100353.03;4966378;28;20071;-78
2022/12/23 08:30:37;;;;;;;16.80;8.20;;;;;;;8.49;100.00;100352.69;4931307;28;20040;-78
2022/12/23 08:33:02;;;;;;;18.55;7.45;;;;;;;8.45;100.00;100351.38;4936400;29;20020;-78
2022/12/23 08:35:29;;;;;;;22.95;8.60;;;;;;;8.44;100.00;100355.75;4949680;28;20043;-80
2022/12/23 08:37:54;;;;;;;14.18;7.13;;;;;;;8.47;100.00;100365.75;4935371;29;20035;-79
2022/12/23 08:40:20;;;;;;;14.40;7.13;;;;;;;8.47;100.00;100352.03;4947658;28;20437;-78
2022/12/23 08:42:45;;;;;;;14.80;7.32;;;;;;;8.44;100.00;100360.09;4934014;29;20047;-79
2022/12/23 08:45:11;;;;;;;16.75;7.53;;;;;;;8.46;100.00;100347.84;4946906;28;20044;-79
2022/12/23 08:47:36;;;;;;;16.98;7.72;;;;;;;8.54;100.00;100334.97;4926373;29;20330;-78
2022/12/23 08:50:03;;;;;;;21.58;8.32;;;;;;;8.55;100.00;100341.75;4957973;28;20469;-79
2022/12/23 08:52:28;;;;;;;23.50;8.27;;;;;;;8.48;100.00;100344.16;4933117;29;20035;-79
2022/12/23 08:54:53;;;;;;;17.00;7.90;;;;;;;8.49;100.00;100348.31;4951575;28;20051;-79
2022/12/23 08:57:19;;;;;;;20.33;8.88;;;;;;;8.48;100.00;100351.09;4963947;28;20031;-79
2022/12/23 08:59:45;;;;;;;21.85;8.60;;;;;;;8.48;100.00;100356.25;4931299;28;20051;-79
2022/12/23 09:02:11;;;;;;;21.60;10.68;;;;;;;8.47;100.00;100360.59;4919805;29;20042;-80
2022/12/23 09:04:36;;;;;;;22.27;9.75;;;;;;;8.54;100.00;100365.97;4929219;28;20048;-78
2022/12/23 09:07:02;;;;;;;23.52;10.02;;;;;;;8.57;100.00;100353.56;4939021;29;20047;-79
2022/12/23 09:09:27;;;;;;;24.92;10.55;;;;;;;8.56;100.00;100358.88;4959375;28;20051;-78
2022/12/23 09:11:53;;;;;;;22.65;9.75;;;;;;;8.59;100.00;100356.00;4949830;28;20040;-79
2022/12/23 09:14:18;;;;;;;16.45;8.82;;;;;;;8.65;100.00;100347.63;4958005;28;20051;-78
2022/12/23 09:16:44;;;;;;;17.77;8.90;;;;;;;8.62;100.00;100344.53;4964757;28;20035;-78
2022/12/23 09:19:09;;;;;;;19.48;9.23;;;;;;;8.59;100.00;100348.25;4945820;28;20043;-78
2022/12/23 09:21:35;;;;;;;17.60;9.27;;;;;;;8.59;100.00;100343.06;4936822;29;20042;-78
2022/12/23 09:24:00;;;;;;;19.45;9.07;;;;;;;8.58;100.00;100347.41;4951815;28;20118;-78
2022/12/23 09:26:28;;;;;;;22.85;9.25;;;;;;;8.63;100.00;100343.59;4952345;28;20046;-78
2022/12/23 09:28:54;;;;;;;22.48;9.20;;;;;;;8.59;100.00;100345.66;4945414;28;20043;-78
2022/12/23 09:31:21;;;;;;;26.83;9.73;;;;;;;8.61;100.00;100323.06;4934462;29;20039;-78
2022/12/23 09:33:48;;;;;;;27.67;10.88;;;;;;;8.65;100.00;100319.19;4935330;28;20055;-78
2022/12/23 09:36:15;;;;;;;23.15;10.27;;;;;;;8.71;100.00;100318.56;4929734;29;20039;-78
2022/12/23 09:38:40;;;;;;;24.08;11.23;;;;;;;8.73;100.00;100315.81;4964531;28;20040;-78
2022/12/23 09:41:42;;;;;;;26.35;10.70;;;;;;;8.72;100.00;100324.53;4936207;29;20078;-78
2022/12/23 09:44:11;;;;;;;23.85;10.65;;;;;;;8.72;100.00;100321.94;4914591;28;20114;-78
2022/12/23 09:47:00;;;;;;;27.40;11.63;;;;;;;8.80;100.00;100311.66;4933397;28;20401;-78
2022/12/23 09:49:26;;;;;;;26.38;11.75;;;;;;;8.75;100.00;100288.03;4944546;28;20044;-78
2022/12/23 09:51:59;;;;;;;22.20;11.75;;;;;;;8.69;100.00;100284.31;4954135;28;20036;-79
2022/12/23 09:54:44;;;;;;;27.23;11.65;;;;;;;8.74;100.00;100291.59;4964054;28;20564;-78
2022/12/23 09:57:23;;;;;;;24.38;11.15;;;;;;;8.72;100.00;100280.59;4969284;28;20055;-79
2022/12/23 09:59:48;;;;;;;21.30;11.50;;;;;;;8.74;100.00;100278.69;4937480;28;20047;-78
2022/12/23 10:02:29;;;;;;;24.42;10.65;;;;;;;8.80;100.00;100290.97;4947702;28;20252;-79
2022/12/23 10:04:54;;;;;;;20.35;9.50;;;;;;;8.81;100.00;100287.41;4965433;28;20056;-78
2022/12/23 10:07:31;;;;;;;20.58;9.48;;;;;;;8.79;100.00;100291.13;4952918;28;20028;-78
2022/12/23 10:10:02;;;;;;;23.05;9.43;;;;;;;8.77;100.00;100265.44;4938846;28;20130;-78
2022/12/23 10:12:36;;;;;;;18.35;9.02;;;;;;;8.85;100.00;100269.81;4940831;29;20082;-78
2022/12/23 10:15:15;;;;;;;20.92;9.07;;;;;;;8.76;100.00;100256.88;4968743;28;20431;-78
2022/12/23 10:17:42;;;;;;;23.48;8.75;;;;;;;8.83;100.00;100245.88;4936300;29;20033;-78
2022/12/23 10:20:19;;;;;;;16.67;8.27;;;;;;;8.81;100.00;100227.94;4942172;28;20102;-78
2022/12/23 10:22:46;;;;;;;19.50;9.38;;;;;;;8.84;100.00;100225.06;4943606;29;20035;-78
2022/12/23 10:25:34;;;;;;;30.10;11.02;;;;;;;8.93;100.00;100226.69;4963212;28;20047;-78
2022/12/23 10:27:59;;;;;;;22.13;10.20;;;;;;;8.84;100.00;100230.22;4968996;28;20039;-78
2022/12/23 10:30:30;;;;;;;23.98;10.93;;;;;;;8.82;100.00;100239.13;4940681;28;20099;-78
2022/12/23 10:33:21;;;;;;;18.25;8.73;;;;;;;8.82;100.00;100247.69;4936710;29;20107;-78
2022/12/23 10:36:05;;;;;;;19.33;9.73;;;;;;;8.87;100.00;100249.78;4970972;28;20543;-78
2022/12/23 10:38:44;;;;;;;15.45;8.25;;;;;;;8.82;100.00;100231.38;4949769;28;20044;-78
2022/12/23 10:41:45;;;;;;;21.63;10.05;;;;;;;8.83;100.00;100236.34;4934905;29;20037;-78
2022/12/23 10:44:29;;;;;;;17.42;8.13;;;;;;;8.85;100.00;100231.81;4938023;28;20052;-78
2022/12/23 10:47:07;;;;;;;17.30;8.85;;;;;;;8.81;100.00;100219.38;4936779;29;20049;-78
2022/12/23 10:49:38;;;;;;;14.10;7.32;;;;;;;8.81;100.00;100212.44;4956545;28;20201;-78
2022/12/23 10:52:38;;;;;;;16.58;7.85;;;;;;;8.91;100.00;100207.13;4940752;28;20036;-78
2022/12/23 10:55:04;;;;;;;21.77;9.07;;;;;;;8.95;100.00;100198.09;4936008;28;20044;-78
2022/12/23 10:57:30;;;;;;;22.05;7.97;;;;;;;8.91;100.00;100194.19;4945520;28;20115;-78
2022/12/23 10:59:56;;;;;;;18.67;7.55;;;;;;;8.90;100.00;100201.13;4930286;28;20434;-78
2022/12/23 11:02:22;;;;;;;12.32;6.68;;;;;;;8.85;100.00;100198.22;4934823;29;20027;-78
2022/12/23 11:04:48;;;;;;;14.85;6.70;;;;;;;8.79;100.00;100182.56;4961772;28;20591;-79
2022/12/23 11:07:21;;;;;;;14.07;7.00;;;;;;;8.81;100.00;100183.19;4964093;28;20036;-77
2022/12/23 11:09:52;;;;;;;16.90;6.85;;;;;;;8.81;100.00;100180.63;4937034;29;20127;-77
2022/12/23 11:12:22;;;;;;;17.83;6.60;;;;;;;8.81;100.00;100184.00;4961021;28;20048;-78
2022/12/23 11:14:56;;;;;;;14.02;6.25;;;;;;;8.87;100.00;100172.22;4932126;28;20047;-77
2022/12/23 11:17:30;;;;;;;13.93;5.85;;;;;;;8.86;100.00;100168.03;4932469;29;20756;-77
2022/12/23 11:20:16;;;;;;;13.50;5.47;;;;;;;8.87;100.00;100156.69;4944938;28;20050;-77
2022/12/23 11:22:48;;;;;;;12.68;6.20;;;;;;;8.93;100.00;100154.28;4946061;28;20040;-77
2022/12/23 11:25:28;;;;;;;12.05;5.50;;;;;;;8.94;100.00;100139.56;4931758;28;20043;-78
2022/12/23 11:28:07;;;;;;;13.20;4.63;;;;;;;9.01;100.00;100132.00;4931490;29;20437;-78
2022/12/23 11:30:44;;;;;;;14.23;5.05;;;;;;;9.02;100.00;100120.66;4962930;28;20072;-78
2022/12/23 11:33:23;;;;;;;13.50;5.65;;;;;;;9.01;100.00;100114.69;4961840;28;20058;-78
2022/12/23 11:35:59;;;;;;;10.85;4.80;;;;;;;9.01;100.00;100109.53;4932688;29;20549;-78
2022/12/23 11:38:25;;;;;;;11.35;5.68;;;;;;;9.12;100.00;100101.44;4933835;29;20442;-77
2022/12/23 11:40:50;;;;;;;13.93;4.50;;;;;;;9.24;100.00;100077.81;4928965;28;20134;-78
2022/12/23 11:43:17;;;;;;;11.55;4.63;;;;;;;9.19;100.00;100065.34;4931427;29;20023;-77
2022/12/23 11:45:42;;;;;;;14.35;4.40;;;;;;;9.14;100.00;100059.88;4929685;28;20048;-78
2022/12/23 11:48:27;;;;;;;11.52;4.18;;;;;;;9.12;100.00;100059.25;4924205;28;20508;-77
2022/12/23 11:51:01;;;;;;;10.63;3.95;;;;;;;9.09;100.00;100054.41;4952745;28;20376;-78
2022/12/23 11:53:27;;;;;;;9.65;4.32;;;;;;;9.15;100.00;100044.22;4958866;28;20032;-79
2022/12/23 11:56:09;;;;;;;8.88;4.00;;;;;;;9.02;100.00;100023.19;4931247;28;20070;-79
2022/12/23 11:58:46;;;;;;;11.05;4.38;;;;;;;8.98;100.00;100015.94;4923434;28;20034;-78